sensor_id;sensor_type;location;lat;lon;timestamp;P1;durP1;ratioP1;P2;durP2;ratioP2
74945;SDS011;63509;45.250;38.102;2023-03-20T00:01:11;30.83;;;14.98;;
74945;SDS011;63509;45.250;38.102;2023-03-20T00:03:46;31.95;;;18.13;;
74945;SDS011;63509;45.250;38.102;2023-03-20T00:06:16;30.40;;;15.38;;
74945;SDS011;63509;45.250;38.102;2023-03-20T00:08:44;34.42;;;17.00;;
74945;SDS011;63509;45.250;38.102;2023-03-20T00:11:45;29.33;;;15.23;;
74945;SDS011;63509;45.250;38.102;2023-03-20T00:14:14;29.50;;;13.90;;
74945;SDS011;63509;45.250;38.102;2023-03-20T00:16:43;34.00;;;16.90;;
74945;SDS011;63509;45.250;38.102;2023-03-20T00:19:18;37.70;;;14.93;;
74945;SDS011;63509;45.250;38.102;2023-03-20T00:21:47;34.08;;;15.93;;
74945;SDS011;63509;45.250;38.102;2023-03-20T00:24:14;38.75;;;18.13;;
74945;SDS011;63509;45.250;38.102;2023-03-20T00:26:42;35.47;;;16.05;;
74945;SDS011;63509;45.250;38.102;2023-03-20T00:29:23;30.33;;;15.23;;
74945;SDS011;63509;45.250;38.102;2023-03-20T00:31:51;37.03;;;17.30;;
74945;SDS011;63509;45.250;38.102;2023-03-20T00:34:18;40.17;;;16.02;;
74945;SDS011;63509;45.250;38.102;2023-03-20T00:36:48;33.58;;;16.88;;
74945;SDS011;63509;45.250;38.102;2023-03-20T00:39:16;35.17;;;16.13;;
74945;SDS011;63509;45.250;38.102;2023-03-20T00:42:43;29.05;;;15.70;;
74945;SDS011;63509;45.250;38.102;2023-03-20T00:44:47;37.97;;;15.65;;
74945;SDS011;63509;45.250;38.102;2023-03-20T00:47:18;31.90;;;13.48;;
74945;SDS011;63509;45.250;38.102;2023-03-20T00:49:46;53.45;;;19.67;;
74945;SDS011;63509;45.250;38.102;2023-03-20T00:54:42;42.67;;;16.45;;
74945;SDS011;63509;45.250;38.102;2023-03-20T00:57:11;32.25;;;14.98;;
74945;SDS011;63509;45.250;38.102;2023-03-20T00:59:45;34.75;;;16.45;;
74945;SDS011;63509;45.250;38.102;2023-03-20T01:02:17;30.40;;;15.95;;
74945;SDS011;63509;45.250;38.102;2023-03-20T01:04:45;34.65;;;15.07;;
74945;SDS011;63509;45.250;38.102;2023-03-20T01:07:13;40.05;;;17.20;;
74945;SDS011;63509;45.250;38.102;2023-03-20T01:09:40;37.55;;;17.27;;
74945;SDS011;63509;45.250;38.102;2023-03-20T01:12:06;38.40;;;17.17;;
74945;SDS011;63509;45.250;38.102;2023-03-20T01:14:35;41.80;;;16.20;;
74945;SDS011;63509;45.250;38.102;2023-03-20T01:17:01;46.53;;;17.08;;
74945;SDS011;63509;45.250;38.102;2023-03-20T01:19:27;36.53;;;16.00;;
74945;SDS011;63509;45.250;38.102;2023-03-20T01:21:53;33.15;;;16.48;;
74945;SDS011;63509;45.250;38.102;2023-03-20T01:24:19;32.40;;;15.63;;
74945;SDS011;63509;45.250;38.102;2023-03-20T01:26:45;40.75;;;16.15;;
74945;SDS011;63509;45.250;38.102;2023-03-20T01:29:18;32.47;;;15.38;;
74945;SDS011;63509;45.250;38.102;2023-03-20T01:31:49;37.22;;;15.63;;
74945;SDS011;63509;45.250;38.102;2023-03-20T01:34:17;38.47;;;16.77;;
74945;SDS011;63509;45.250;38.102;2023-03-20T01:36:48;41.35;;;15.98;;
74945;SDS011;63509;45.250;38.102;2023-03-20T01:39:19;43.20;;;16.48;;
74945;SDS011;63509;45.250;38.102;2023-03-20T01:41:49;36.65;;;16.08;;
74945;SDS011;63509;45.250;38.102;2023-03-20T01:44:21;34.35;;;15.75;;
74945;SDS011;63509;45.250;38.102;2023-03-20T01:46:57;29.27;;;15.35;;
74945;SDS011;63509;45.250;38.102;2023-03-20T01:51:54;33.17;;;14.70;;
74945;SDS011;63509;45.250;38.102;2023-03-20T01:54:26;37.00;;;14.95;;
74945;SDS011;63509;45.250;38.102;2023-03-20T01:57:16;29.70;;;14.07;;
74945;SDS011;63509;45.250;38.102;2023-03-20T01:59:46;37.60;;;15.95;;
74945;SDS011;63509;45.250;38.102;2023-03-20T02:02:17;36.42;;;15.15;;
74945;SDS011;63509;45.250;38.102;2023-03-20T02:04:48;43.25;;;14.88;;
74945;SDS011;63509;45.250;38.102;2023-03-20T02:07:19;31.42;;;14.52;;
74945;SDS011;63509;45.250;38.102;2023-03-20T02:09:57;41.00;;;15.00;;
74945;SDS011;63509;45.250;38.102;2023-03-20T02:12:49;31.77;;;15.05;;
74945;SDS011;63509;45.250;38.102;2023-03-20T02:15:25;41.95;;;12.93;;
74945;SDS011;63509;45.250;38.102;2023-03-20T02:18:13;38.13;;;15.77;;
74945;SDS011;63509;45.250;38.102;2023-03-20T02:30:20;30.55;;;12.95;;
74945;SDS011;63509;45.250;38.102;2023-03-20T02:41:23;47.03;;;16.17;;
74945;SDS011;63509;45.250;38.102;2023-03-20T02:43:59;41.55;;;16.02;;
74945;SDS011;63509;45.250;38.102;2023-03-20T02:52:25;39.03;;;15.90;;
74945;SDS011;63509;45.250;38.102;2023-03-20T03:00:37;38.05;;;15.77;;
74945;SDS011;63509;45.250;38.102;2023-03-20T03:03:26;35.28;;;15.30;;
74945;SDS011;63509;45.250;38.102;2023-03-20T03:06:11;35.58;;;15.43;;
74945;SDS011;63509;45.250;38.102;2023-03-20T03:08:46;35.20;;;16.42;;
74945;SDS011;63509;45.250;38.102;2023-03-20T03:11:17;38.90;;;17.55;;
74945;SDS011;63509;45.250;38.102;2023-03-20T03:13:48;40.60;;;16.83;;
74945;SDS011;63509;45.250;38.102;2023-03-20T03:16:22;45.42;;;17.27;;
74945;SDS011;63509;45.250;38.102;2023-03-20T03:18:55;37.47;;;15.35;;
74945;SDS011;63509;45.250;38.102;2023-03-20T03:21:28;51.45;;;18.48;;
74945;SDS011;63509;45.250;38.102;2023-03-20T03:23:57;48.13;;;16.90;;
74945;SDS011;63509;45.250;38.102;2023-03-20T03:26:24;39.65;;;15.93;;
74945;SDS011;63509;45.250;38.102;2023-03-20T03:28:56;44.72;;;17.98;;
74945;SDS011;63509;45.250;38.102;2023-03-20T03:31:26;51.20;;;16.42;;
74945;SDS011;63509;45.250;38.102;2023-03-20T03:33:55;47.10;;;17.17;;
74945;SDS011;63509;45.250;38.102;2023-03-20T03:50:14;42.92;;;16.45;;
74945;SDS011;63509;45.250;38.102;2023-03-20T03:52:45;40.72;;;17.35;;
74945;SDS011;63509;45.250;38.102;2023-03-20T03:55:15;50.17;;;18.42;;
74945;SDS011;63509;45.250;38.102;2023-03-20T03:58:02;39.95;;;16.40;;
74945;SDS011;63509;45.250;38.102;2023-03-20T04:00:33;33.40;;;16.17;;
74945;SDS011;63509;45.250;38.102;2023-03-20T04:03:01;43.75;;;17.20;;
74945;SDS011;63509;45.250;38.102;2023-03-20T04:05:30;41.03;;;17.13;;
74945;SDS011;63509;45.250;38.102;2023-03-20T04:08:00;32.53;;;16.35;;
74945;SDS011;63509;45.250;38.102;2023-03-20T04:10:27;33.28;;;15.43;;
74945;SDS011;63509;45.250;38.102;2023-03-20T04:12:53;44.53;;;17.98;;
74945;SDS011;63509;45.250;38.102;2023-03-20T04:15:19;45.15;;;16.38;;
74945;SDS011;63509;45.250;38.102;2023-03-20T04:17:46;32.80;;;16.02;;
74945;SDS011;63509;45.250;38.102;2023-03-20T04:20:14;34.47;;;15.98;;
74945;SDS011;63509;45.250;38.102;2023-03-20T04:22:40;44.50;;;17.27;;
74945;SDS011;63509;45.250;38.102;2023-03-20T04:25:16;36.13;;;18.13;;
74945;SDS011;63509;45.250;38.102;2023-03-20T04:27:48;40.17;;;15.82;;
74945;SDS011;63509;45.250;38.102;2023-03-20T04:30:51;36.47;;;16.00;;
74945;SDS011;63509;45.250;38.102;2023-03-20T04:33:42;44.20;;;15.05;;
74945;SDS011;63509;45.250;38.102;2023-03-20T04:36:21;32.83;;;17.55;;
74945;SDS011;63509;45.250;38.102;2023-03-20T04:38:49;45.55;;;17.02;;
74945;SDS011;63509;45.250;38.102;2023-03-20T04:41:15;41.05;;;17.63;;
74945;SDS011;63509;45.250;38.102;2023-03-20T04:43:43;38.17;;;17.10;;
74945;SDS011;63509;45.250;38.102;2023-03-20T04:46:09;42.67;;;15.95;;
74945;SDS011;63509;45.250;38.102;2023-03-20T04:48:36;40.05;;;15.85;;
74945;SDS011;63509;45.250;38.102;2023-03-20T04:51:02;46.38;;;17.05;;
74945;SDS011;63509;45.250;38.102;2023-03-20T04:53:48;41.88;;;17.17;;
74945;SDS011;63509;45.250;38.102;2023-03-20T04:56:14;52.70;;;17.95;;
74945;SDS011;63509;45.250;38.102;2023-03-20T04:58:40;48.97;;;17.73;;
74945;SDS011;63509;45.250;38.102;2023-03-20T05:01:08;43.63;;;16.65;;
74945;SDS011;63509;45.250;38.102;2023-03-20T05:03:34;35.85;;;15.02;;
74945;SDS011;63509;45.250;38.102;2023-03-20T05:06:00;39.60;;;17.13;;
74945;SDS011;63509;45.250;38.102;2023-03-20T05:08:26;45.55;;;17.30;;
74945;SDS011;63509;45.250;38.102;2023-03-20T05:10:57;42.05;;;16.52;;
74945;SDS011;63509;45.250;38.102;2023-03-20T05:13:41;31.83;;;15.57;;
74945;SDS011;63509;45.250;38.102;2023-03-20T05:16:33;35.05;;;15.65;;
74945;SDS011;63509;45.250;38.102;2023-03-20T05:19:20;36.72;;;16.10;;
74945;SDS011;63509;45.250;38.102;2023-03-20T05:22:10;34.20;;;15.77;;
74945;SDS011;63509;45.250;38.102;2023-03-20T05:24:51;41.53;;;18.20;;
74945;SDS011;63509;45.250;38.102;2023-03-20T05:27:55;35.80;;;15.98;;
74945;SDS011;63509;45.250;38.102;2023-03-20T05:30:47;37.95;;;15.80;;
74945;SDS011;63509;45.250;38.102;2023-03-20T05:33:34;42.08;;;18.45;;
74945;SDS011;63509;45.250;38.102;2023-03-20T05:36:10;35.67;;;16.02;;
74945;SDS011;63509;45.250;38.102;2023-03-20T05:38:50;42.83;;;15.65;;
74945;SDS011;63509;45.250;38.102;2023-03-20T05:41:35;32.97;;;16.08;;
74945;SDS011;63509;45.250;38.102;2023-03-20T05:44:06;34.85;;;16.80;;
74945;SDS011;63509;45.250;38.102;2023-03-20T05:46:51;41.75;;;18.17;;
74945;SDS011;63509;45.250;38.102;2023-03-20T05:49:38;33.35;;;17.23;;
74945;SDS011;63509;45.250;38.102;2023-03-20T05:52:25;44.70;;;18.48;;
74945;SDS011;63509;45.250;38.102;2023-03-20T05:55:15;44.22;;;18.42;;
74945;SDS011;63509;45.250;38.102;2023-03-20T05:58:10;49.67;;;18.13;;
74945;SDS011;63509;45.250;38.102;2023-03-20T06:00:56;38.22;;;17.30;;
74945;SDS011;63509;45.250;38.102;2023-03-20T06:03:45;48.47;;;17.85;;
74945;SDS011;63509;45.250;38.102;2023-03-20T06:06:15;44.55;;;17.60;;
74945;SDS011;63509;45.250;38.102;2023-03-20T06:08:46;27.67;;;15.70;;
74945;SDS011;63509;45.250;38.102;2023-03-20T06:11:13;51.38;;;19.02;;
74945;SDS011;63509;45.250;38.102;2023-03-20T06:13:40;38.65;;;15.57;;
74945;SDS011;63509;45.250;38.102;2023-03-20T06:16:06;40.08;;;17.00;;
74945;SDS011;63509;45.250;38.102;2023-03-20T06:18:34;40.10;;;18.05;;
74945;SDS011;63509;45.250;38.102;2023-03-20T06:21:00;49.88;;;20.05;;
74945;SDS011;63509;45.250;38.102;2023-03-20T06:23:28;46.17;;;17.92;;
74945;SDS011;63509;45.250;38.102;2023-03-20T06:25:56;39.00;;;16.60;;
74945;SDS011;63509;45.250;38.102;2023-03-20T06:28:23;41.28;;;17.88;;
74945;SDS011;63509;45.250;38.102;2023-03-20T06:30:57;43.58;;;16.48;;
74945;SDS011;63509;45.250;38.102;2023-03-20T06:33:24;40.25;;;16.75;;
74945;SDS011;63509;45.250;38.102;2023-03-20T06:35:56;52.63;;;17.98;;
74945;SDS011;63509;45.250;38.102;2023-03-20T06:38:23;46.65;;;16.20;;
74945;SDS011;63509;45.250;38.102;2023-03-20T06:40:50;48.50;;;16.73;;
74945;SDS011;63509;45.250;38.102;2023-03-20T06:43:16;57.47;;;18.15;;
74945;SDS011;63509;45.250;38.102;2023-03-20T06:45:49;40.45;;;15.75;;
74945;SDS011;63509;45.250;38.102;2023-03-20T06:48:20;48.20;;;16.88;;
74945;SDS011;63509;45.250;38.102;2023-03-20T06:50:50;44.22;;;17.55;;
74945;SDS011;63509;45.250;38.102;2023-03-20T06:53:20;47.05;;;16.50;;
74945;SDS011;63509;45.250;38.102;2023-03-20T06:56:01;49.50;;;17.77;;
74945;SDS011;63509;45.250;38.102;2023-03-20T06:58:27;44.67;;;17.35;;
74945;SDS011;63509;45.250;38.102;2023-03-20T07:00:53;40.25;;;17.15;;
74945;SDS011;63509;45.250;38.102;2023-03-20T07:03:20;59.15;;;17.95;;
74945;SDS011;63509;45.250;38.102;2023-03-20T07:05:47;50.60;;;16.73;;
74945;SDS011;63509;45.250;38.102;2023-03-20T07:08:15;60.17;;;16.90;;
74945;SDS011;63509;45.250;38.102;2023-03-20T07:10:41;40.42;;;15.32;;
74945;SDS011;63509;45.250;38.102;2023-03-20T07:13:07;52.55;;;15.43;;
74945;SDS011;63509;45.250;38.102;2023-03-20T07:15:36;37.28;;;16.73;;
74945;SDS011;63509;45.250;38.102;2023-03-20T07:18:04;50.40;;;16.50;;
74945;SDS011;63509;45.250;38.102;2023-03-20T07:20:31;38.22;;;17.13;;
74945;SDS011;63509;45.250;38.102;2023-03-20T07:22:57;43.08;;;16.02;;
74945;SDS011;63509;45.250;38.102;2023-03-20T07:25:25;50.67;;;17.40;;
74945;SDS011;63509;45.250;38.102;2023-03-20T07:27:53;53.50;;;18.73;;
74945;SDS011;63509;45.250;38.102;2023-03-20T07:30:21;46.05;;;15.48;;
74945;SDS011;63509;45.250;38.102;2023-03-20T07:32:48;44.63;;;16.60;;
74945;SDS011;63509;45.250;38.102;2023-03-20T07:35:14;50.40;;;17.85;;
74945;SDS011;63509;45.250;38.102;2023-03-20T07:37:42;56.60;;;17.10;;
74945;SDS011;63509;45.250;38.102;2023-03-20T07:40:08;41.25;;;15.82;;
74945;SDS011;63509;45.250;38.102;2023-03-20T07:43:01;46.00;;;15.88;;
74945;SDS011;63509;45.250;38.102;2023-03-20T07:45:50;45.30;;;15.95;;
74945;SDS011;63509;45.250;38.102;2023-03-20T07:48:18;44.30;;;15.90;;
74945;SDS011;63509;45.250;38.102;2023-03-20T07:50:44;39.63;;;14.52;;
74945;SDS011;63509;45.250;38.102;2023-03-20T07:53:11;45.13;;;15.52;;
74945;SDS011;63509;45.250;38.102;2023-03-20T07:55:37;41.08;;;14.75;;
74945;SDS011;63509;45.250;38.102;2023-03-20T07:58:03;61.25;;;17.23;;
74945;SDS011;63509;45.250;38.102;2023-03-20T08:00:29;41.55;;;15.40;;
74945;SDS011;63509;45.250;38.102;2023-03-20T08:02:56;47.72;;;17.67;;
74945;SDS011;63509;45.250;38.102;2023-03-20T08:05:22;52.42;;;16.95;;
74945;SDS011;63509;45.250;38.102;2023-03-20T08:07:48;39.88;;;16.13;;
74945;SDS011;63509;45.250;38.102;2023-03-20T08:10:15;41.70;;;14.75;;
74945;SDS011;63509;45.250;38.102;2023-03-20T08:12:42;44.78;;;15.30;;
74945;SDS011;63509;45.250;38.102;2023-03-20T08:15:08;41.80;;;17.45;;
74945;SDS011;63509;45.250;38.102;2023-03-20T08:17:34;45.28;;;14.73;;
74945;SDS011;63509;45.250;38.102;2023-03-20T08:20:00;50.13;;;15.98;;
74945;SDS011;63509;45.250;38.102;2023-03-20T08:22:26;49.42;;;16.83;;
74945;SDS011;63509;45.250;38.102;2023-03-20T08:24:52;43.53;;;15.73;;
74945;SDS011;63509;45.250;38.102;2023-03-20T08:27:18;34.72;;;15.10;;
74945;SDS011;63509;45.250;38.102;2023-03-20T08:29:44;57.40;;;16.52;;
74945;SDS011;63509;45.250;38.102;2023-03-20T08:32:11;40.80;;;15.63;;
74945;SDS011;63509;45.250;38.102;2023-03-20T08:34:37;38.25;;;15.38;;
74945;SDS011;63509;45.250;38.102;2023-03-20T08:37:03;34.92;;;14.95;;
74945;SDS011;63509;45.250;38.102;2023-03-20T08:39:29;52.58;;;16.50;;
74945;SDS011;63509;45.250;38.102;2023-03-20T08:41:55;36.15;;;15.48;;
74945;SDS011;63509;45.250;38.102;2023-03-20T08:44:21;43.25;;;17.35;;
74945;SDS011;63509;45.250;38.102;2023-03-20T08:46:47;36.67;;;15.35;;
74945;SDS011;63509;45.250;38.102;2023-03-20T08:49:13;44.47;;;16.67;;
74945;SDS011;63509;45.250;38.102;2023-03-20T08:51:39;46.03;;;16.50;;
74945;SDS011;63509;45.250;38.102;2023-03-20T08:54:05;42.53;;;16.80;;
74945;SDS011;63509;45.250;38.102;2023-03-20T08:56:31;43.92;;;16.90;;
74945;SDS011;63509;45.250;38.102;2023-03-20T08:58:57;44.90;;;17.20;;
74945;SDS011;63509;45.250;38.102;2023-03-20T09:01:23;36.80;;;16.13;;
74945;SDS011;63509;45.250;38.102;2023-03-20T09:03:49;38.78;;;15.15;;
74945;SDS011;63509;45.250;38.102;2023-03-20T09:06:16;41.78;;;17.02;;
74945;SDS011;63509;45.250;38.102;2023-03-20T09:08:42;52.13;;;17.05;;
74945;SDS011;63509;45.250;38.102;2023-03-20T09:11:08;49.65;;;17.15;;
74945;SDS011;63509;45.250;38.102;2023-03-20T09:13:34;30.17;;;15.40;;
74945;SDS011;63509;45.250;38.102;2023-03-20T09:16:00;48.03;;;16.25;;
74945;SDS011;63509;45.250;38.102;2023-03-20T09:18:27;41.17;;;16.73;;
74945;SDS011;63509;45.250;38.102;2023-03-20T09:20:53;36.45;;;15.98;;
74945;SDS011;63509;45.250;38.102;2023-03-20T09:23:20;39.75;;;15.63;;
74945;SDS011;63509;45.250;38.102;2023-03-20T09:25:46;35.38;;;15.25;;
74945;SDS011;63509;45.250;38.102;2023-03-20T09:28:13;44.45;;;15.82;;
74945;SDS011;63509;45.250;38.102;2023-03-20T09:30:39;39.10;;;15.43;;
74945;SDS011;63509;45.250;38.102;2023-03-20T09:33:07;39.45;;;15.90;;
74945;SDS011;63509;45.250;38.102;2023-03-20T09:35:33;44.03;;;16.15;;
74945;SDS011;63509;45.250;38.102;2023-03-20T09:37:59;36.30;;;15.50;;
74945;SDS011;63509;45.250;38.102;2023-03-20T09:49:25;35.92;;;15.75;;
74945;SDS011;63509;45.250;38.102;2023-03-20T09:51:59;32.60;;;14.88;;
74945;SDS011;63509;45.250;38.102;2023-03-20T09:54:50;36.90;;;16.23;;
74945;SDS011;63509;45.250;38.102;2023-03-20T09:57:20;38.25;;;15.90;;
74945;SDS011;63509;45.250;38.102;2023-03-20T09:59:52;40.35;;;16.50;;
74945;SDS011;63509;45.250;38.102;2023-03-20T10:02:31;45.08;;;16.92;;
74945;SDS011;63509;45.250;38.102;2023-03-20T10:05:10;38.50;;;17.67;;
74945;SDS011;63509;45.250;38.102;2023-03-20T10:07:43;49.05;;;17.77;;
74945;SDS011;63509;45.250;38.102;2023-03-20T10:10:11;44.40;;;18.33;;
74945;SDS011;63509;45.250;38.102;2023-03-20T10:15:25;41.05;;;16.08;;
74945;SDS011;63509;45.250;38.102;2023-03-20T10:20:58;48.22;;;15.88;;
74945;SDS011;63509;45.250;38.102;2023-03-20T10:23:41;46.92;;;16.95;;
74945;SDS011;63509;45.250;38.102;2023-03-20T10:26:19;44.17;;;17.55;;
74945;SDS011;63509;45.250;38.102;2023-03-20T10:28:57;32.63;;;16.23;;
74945;SDS011;63509;45.250;38.102;2023-03-20T10:42:15;37.03;;;12.63;;
74945;SDS011;63509;45.250;38.102;2023-03-20T10:47:55;36.03;;;12.23;;
74945;SDS011;63509;45.250;38.102;2023-03-20T10:50:31;29.17;;;11.60;;
74945;SDS011;63509;45.250;38.102;2023-03-20T10:53:02;32.65;;;12.70;;
74945;SDS011;63509;45.250;38.102;2023-03-20T10:55:31;40.40;;;13.43;;
74945;SDS011;63509;45.250;38.102;2023-03-20T10:58:20;42.03;;;13.05;;
74945;SDS011;63509;45.250;38.102;2023-03-20T11:00:49;27.08;;;11.40;;
74945;SDS011;63509;45.250;38.102;2023-03-20T11:03:17;29.88;;;12.18;;
74945;SDS011;63509;45.250;38.102;2023-03-20T11:05:47;43.00;;;13.23;;
74945;SDS011;63509;45.250;38.102;2023-03-20T11:08:20;35.50;;;13.00;;
74945;SDS011;63509;45.250;38.102;2023-03-20T11:10:51;34.90;;;11.80;;
74945;SDS011;63509;45.250;38.102;2023-03-20T11:13:25;33.03;;;11.52;;
74945;SDS011;63509;45.250;38.102;2023-03-20T11:15:56;31.40;;;11.55;;
74945;SDS011;63509;45.250;38.102;2023-03-20T11:18:41;38.15;;;12.18;;
74945;SDS011;63509;45.250;38.102;2023-03-20T11:21:09;38.85;;;11.43;;
74945;SDS011;63509;45.250;38.102;2023-03-20T11:23:41;42.33;;;12.38;;
74945;SDS011;63509;45.250;38.102;2023-03-20T11:26:11;32.17;;;10.95;;
74945;SDS011;63509;45.250;38.102;2023-03-20T11:28:41;32.03;;;10.95;;
74945;SDS011;63509;45.250;38.102;2023-03-20T11:31:31;31.23;;;9.70;;
74945;SDS011;63509;45.250;38.102;2023-03-20T11:36:29;35.53;;;11.30;;
74945;SDS011;63509;45.250;38.102;2023-03-20T11:39:06;27.00;;;10.85;;
74945;SDS011;63509;45.250;38.102;2023-03-20T11:41:40;26.48;;;10.73;;
74945;SDS011;63509;45.250;38.102;2023-03-20T11:47:32;28.17;;;12.35;;
74945;SDS011;63509;45.250;38.102;2023-03-20T11:49:56;30.27;;;11.77;;
74945;SDS011;63509;45.250;38.102;2023-03-20T11:52:24;31.05;;;12.45;;
74945;SDS011;63509;45.250;38.102;2023-03-20T11:54:55;30.77;;;11.60;;
74945;SDS011;63509;45.250;38.102;2023-03-20T12:00:05;24.90;;;13.00;;
74945;SDS011;63509;45.250;38.102;2023-03-20T12:02:32;31.42;;;12.43;;
74945;SDS011;63509;45.250;38.102;2023-03-20T12:05:00;31.27;;;12.63;;
74945;SDS011;63509;45.250;38.102;2023-03-20T12:10:12;31.17;;;12.93;;
74945;SDS011;63509;45.250;38.102;2023-03-20T12:12:41;30.50;;;14.35;;
74945;SDS011;63509;45.250;38.102;2023-03-20T12:15:28;35.30;;;13.63;;
74945;SDS011;63509;45.250;38.102;2023-03-20T12:18:01;30.48;;;15.02;;
74945;SDS011;63509;45.250;38.102;2023-03-20T12:20:42;27.48;;;12.23;;
74945;SDS011;63509;45.250;38.102;2023-03-20T12:23:27;27.33;;;14.15;;
74945;SDS011;63509;45.250;38.102;2023-03-20T12:31:37;36.72;;;14.60;;
74945;SDS011;63509;45.250;38.102;2023-03-20T12:34:11;31.48;;;14.65;;
74945;SDS011;63509;45.250;38.102;2023-03-20T12:39:19;35.95;;;16.40;;
74945;SDS011;63509;45.250;38.102;2023-03-20T12:42:12;34.30;;;15.00;;
74945;SDS011;63509;45.250;38.102;2023-03-20T12:50:22;39.83;;;16.60;;
74945;SDS011;63509;45.250;38.102;2023-03-20T12:55:49;40.08;;;18.08;;
74945;SDS011;63509;45.250;38.102;2023-03-20T13:04:11;37.35;;;17.85;;
74945;SDS011;63509;45.250;38.102;2023-03-20T13:06:59;36.67;;;17.63;;
74945;SDS011;63509;45.250;38.102;2023-03-20T13:20:52;45.05;;;18.45;;
74945;SDS011;63509;45.250;38.102;2023-03-20T13:36:36;43.55;;;18.25;;
74945;SDS011;63509;45.250;38.102;2023-03-20T13:39:11;39.60;;;17.08;;
74945;SDS011;63509;45.250;38.102;2023-03-20T13:41:38;43.53;;;16.98;;
74945;SDS011;63509;45.250;38.102;2023-03-20T13:44:05;44.72;;;17.25;;
74945;SDS011;63509;45.250;38.102;2023-03-20T13:46:35;45.33;;;16.15;;
74945;SDS011;63509;45.250;38.102;2023-03-20T13:49:13;39.70;;;18.67;;
74945;SDS011;63509;45.250;38.102;2023-03-20T14:00:42;51.83;;;18.27;;
74945;SDS011;63509;45.250;38.102;2023-03-20T14:03:30;34.38;;;16.33;;
74945;SDS011;63509;45.250;38.102;2023-03-20T14:06:14;44.67;;;16.48;;
74945;SDS011;63509;45.250;38.102;2023-03-20T14:09:03;45.00;;;15.02;;
74945;SDS011;63509;45.250;38.102;2023-03-20T14:11:52;42.90;;;17.75;;
74945;SDS011;63509;45.250;38.102;2023-03-20T14:14:24;40.80;;;15.77;;
74945;SDS011;63509;45.250;38.102;2023-03-20T14:17:27;41.83;;;15.25;;
74945;SDS011;63509;45.250;38.102;2023-03-20T14:19:56;40.30;;;15.52;;
74945;SDS011;63509;45.250;38.102;2023-03-20T14:22:37;39.58;;;14.60;;
74945;SDS011;63509;45.250;38.102;2023-03-20T14:25:08;36.78;;;14.95;;
74945;SDS011;63509;45.250;38.102;2023-03-20T14:30:37;36.67;;;14.32;;
74945;SDS011;63509;45.250;38.102;2023-03-20T14:35:50;33.75;;;14.52;;
74945;SDS011;63509;45.250;38.102;2023-03-20T14:43:57;33.20;;;12.57;;
74945;SDS011;63509;45.250;38.102;2023-03-20T14:46:37;28.73;;;12.57;;
74945;SDS011;63509;45.250;38.102;2023-03-20T14:54:52;24.08;;;10.60;;
74945;SDS011;63509;45.250;38.102;2023-03-20T14:57:28;32.50;;;12.02;;
74945;SDS011;63509;45.250;38.102;2023-03-20T14:59:57;31.92;;;11.27;;
74945;SDS011;63509;45.250;38.102;2023-03-20T15:02:29;34.70;;;12.57;;
74945;SDS011;63509;45.250;38.102;2023-03-20T15:07:27;24.83;;;11.88;;
74945;SDS011;63509;45.250;38.102;2023-03-20T15:09:57;23.70;;;10.90;;
74945;SDS011;63509;45.250;38.102;2023-03-20T15:12:29;29.90;;;12.27;;
74945;SDS011;63509;45.250;38.102;2023-03-20T15:15:00;24.35;;;11.95;;
74945;SDS011;63509;45.250;38.102;2023-03-20T15:17:39;32.90;;;13.05;;
74945;SDS011;63509;45.250;38.102;2023-03-20T15:20:18;49.75;;;21.10;;
74945;SDS011;63509;45.250;38.102;2023-03-20T15:22:53;41.30;;;16.33;;
74945;SDS011;63509;45.250;38.102;2023-03-20T15:25:43;27.60;;;13.13;;
74945;SDS011;63509;45.250;38.102;2023-03-20T15:28:11;56.53;;;20.00;;
74945;SDS011;63509;45.250;38.102;2023-03-20T15:30:44;37.15;;;16.10;;
74945;SDS011;63509;45.250;38.102;2023-03-20T15:33:16;25.80;;;12.90;;
74945;SDS011;63509;45.250;38.102;2023-03-20T15:36:10;33.38;;;10.93;;
74945;SDS011;63509;45.250;38.102;2023-03-20T15:38:41;23.65;;;11.40;;
74945;SDS011;63509;45.250;38.102;2023-03-20T15:41:26;25.70;;;11.60;;
74945;SDS011;63509;45.250;38.102;2023-03-20T15:46:39;25.95;;;11.52;;
74945;SDS011;63509;45.250;38.102;2023-03-20T15:49:06;27.25;;;11.30;;
74945;SDS011;63509;45.250;38.102;2023-03-20T15:51:32;20.90;;;10.93;;
74945;SDS011;63509;45.250;38.102;2023-03-20T15:54:00;19.23;;;11.07;;
74945;SDS011;63509;45.250;38.102;2023-03-20T15:56:32;24.45;;;11.73;;
74945;SDS011;63509;45.250;38.102;2023-03-20T15:59:00;24.48;;;13.10;;
74945;SDS011;63509;45.250;38.102;2023-03-20T16:01:27;24.00;;;11.07;;
74945;SDS011;63509;45.250;38.102;2023-03-20T16:03:56;21.02;;;10.60;;
74945;SDS011;63509;45.250;38.102;2023-03-20T16:06:24;21.52;;;9.98;;
74945;SDS011;63509;45.250;38.102;2023-03-20T16:09:01;22.23;;;10.70;;
74945;SDS011;63509;45.250;38.102;2023-03-20T16:11:37;23.77;;;11.45;;
74945;SDS011;63509;45.250;38.102;2023-03-20T16:14:06;22.75;;;12.18;;
74945;SDS011;63509;45.250;38.102;2023-03-20T16:16:37;21.08;;;10.43;;
74945;SDS011;63509;45.250;38.102;2023-03-20T16:19:04;25.15;;;12.05;;
74945;SDS011;63509;45.250;38.102;2023-03-20T16:21:35;20.88;;;9.65;;
74945;SDS011;63509;45.250;38.102;2023-03-20T16:24:04;26.15;;;11.07;;
74945;SDS011;63509;45.250;38.102;2023-03-20T16:26:35;29.38;;;13.57;;
74945;SDS011;63509;45.250;38.102;2023-03-20T16:29:05;28.45;;;11.93;;
74945;SDS011;63509;45.250;38.102;2023-03-20T16:31:32;24.30;;;12.25;;
74945;SDS011;63509;45.250;38.102;2023-03-20T16:34:04;23.13;;;12.32;;
74945;SDS011;63509;45.250;38.102;2023-03-20T16:36:32;21.60;;;11.10;;
74945;SDS011;63509;45.250;38.102;2023-03-20T16:41:32;23.73;;;11.13;;
74945;SDS011;63509;45.250;38.102;2023-03-20T16:47:17;27.13;;;11.98;;
74945;SDS011;63509;45.250;38.102;2023-03-20T16:50:03;20.30;;;10.40;;
74945;SDS011;63509;45.250;38.102;2023-03-20T16:52:31;22.08;;;12.25;;
74945;SDS011;63509;45.250;38.102;2023-03-20T16:55:02;24.40;;;13.00;;
74945;SDS011;63509;45.250;38.102;2023-03-20T16:57:32;24.35;;;12.73;;
74945;SDS011;63509;45.250;38.102;2023-03-20T17:00:41;27.15;;;13.05;;
74945;SDS011;63509;45.250;38.102;2023-03-20T17:02:59;33.53;;;18.10;;
74945;SDS011;63509;45.250;38.102;2023-03-20T17:05:34;35.30;;;19.15;;
74945;SDS011;63509;45.250;38.102;2023-03-20T17:08:28;44.15;;;25.85;;
74945;SDS011;63509;45.250;38.102;2023-03-20T17:10:59;38.50;;;22.50;;
74945;SDS011;63509;45.250;38.102;2023-03-20T17:13:29;34.05;;;17.13;;
74945;SDS011;63509;45.250;38.102;2023-03-20T17:15:55;30.38;;;17.63;;
74945;SDS011;63509;45.250;38.102;2023-03-20T17:18:23;32.35;;;17.15;;
74945;SDS011;63509;45.250;38.102;2023-03-20T17:20:50;22.02;;;15.52;;
74945;SDS011;63509;45.250;38.102;2023-03-20T17:23:20;26.95;;;14.77;;
74945;SDS011;63509;45.250;38.102;2023-03-20T17:25:48;24.42;;;12.50;;
74945;SDS011;63509;45.250;38.102;2023-03-20T17:28:16;25.67;;;12.65;;
74945;SDS011;63509;45.250;38.102;2023-03-20T17:30:45;23.48;;;12.07;;